Time;durP1;ratioP1;P1;durP2;ratioP2;P2;SDS_P1;SDS_P2;PMS_P1;PMS_P2;Temp;Humidity;BMP_temperature;BMP_pressure;BME280_temperature;BME280_humidity;BME280_pressure;Samples;Min_cycle;Max_cycle;Signal;HPM_P1;HPM_P2
2022/08/03 00:01:41;;;;;;;12.40;6.53;;;18.50;99.90;;;;;;5011470;28;20038;-67
2022/08/03 00:04:09;;;;;;;12.98;6.45;;;18.40;99.90;;;;;;5009140;28;20053;-68
2022/08/03 00:06:35;;;;;;;17.15;7.03;;;18.30;99.90;;;;;;5012311;28;20046;-67
2022/08/03 00:09:02;;;;;;;12.20;6.30;;;18.40;99.90;;;;;;5008470;28;20408;-67
2022/08/03 00:11:28;;;;;;;14.85;6.95;;;18.40;99.90;;;;;;5012176;28;20058;-67
2022/08/03 00:13:54;;;;;;;11.55;6.18;;;18.30;99.90;;;;;;4991864;28;20092;-68
2022/08/03 00:16:20;;;;;;;11.10;5.75;;;18.30;99.90;;;;;;5007987;28;20140;-68
2022/08/03 00:18:46;;;;;;;16.80;6.43;;;18.40;99.90;;;;;;5001702;28;20095;-67
2022/08/03 00:21:12;;;;;;;12.95;5.85;;;18.40;99.90;;;;;;5010295;28;20081;-67
2022/08/03 00:23:38;;;;;;;11.95;5.78;;;18.40;99.90;;;;;;4975994;28;20049;-68
2022/08/03 00:26:04;;;;;;;12.20;6.22;;;18.40;99.90;;;;;;5002532;28;20046;-67
2022/08/03 00:28:30;;;;;;;15.13;5.30;;;18.40;99.90;;;;;;4992960;28;20054;-68
2022/08/03 00:30:56;;;;;;;12.55;5.72;;;18.40;99.90;;;;;;5012230;28;20085;-69
2022/08/03 00:33:22;;;;;;;9.00;5.50;;;18.50;99.90;;;;;;5009634;28;20450;-68
2022/08/03 00:35:48;;;;;;;10.55;5.13;;;18.50;99.90;;;;;;5017249;28;20468;-68
2022/08/03 00:38:14;;;;;;;10.90;4.57;;;18.50;99.90;;;;;;5013791;28;20049;-68
2022/08/03 00:40:40;;;;;;;13.45;4.63;;;18.40;99.90;;;;;;4994235;28;20058;-68
2022/08/03 00:43:07;;;;;;;10.80;4.43;;;18.50;99.90;;;;;;5007030;28;20485;-68
2022/08/03 00:45:36;;;;;;;13.68;4.65;;;18.50;99.90;;;;;;5011422;28;20096;-68
2022/08/03 00:48:04;;;;;;;10.18;4.70;;;18.50;99.90;;;;;;5009771;28;20053;-71
2022/08/03 00:50:34;;;;;;;9.23;4.15;;;18.50;99.90;;;;;;4995406;28;20132;-68
2022/08/03 00:53:03;;;;;;;12.90;4.20;;;18.50;99.90;;;;;;5010605;28;20046;-70
2022/08/03 00:55:29;;;;;;;10.95;4.47;;;18.50;99.90;;;;;;5002679;28;20049;-67
2022/08/03 00:57:56;;;;;;;7.65;4.10;;;18.40;99.90;;;;;;5010603;28;20046;-70
2022/08/03 01:00:24;;;;;;;11.23;4.18;;;18.40;99.90;;;;;;5008427;28;20393;-69
2022/08/03 01:02:51;;;;;;;9.32;3.88;;;18.40;99.90;;;;;;5010401;28;20125;-68
2022/08/03 01:05:18;;;;;;;11.00;3.88;;;18.40;99.90;;;;;;5028073;28;20480;-68
2022/08/03 01:08:07;;;;;;;7.82;4.07;;;18.40;99.90;;;;;;5011708;28;20109;-70
2022/08/03 01:10:44;;;;;;;11.50;4.00;;;18.40;99.90;;;;;;5010074;28;20054;-68
2022/08/03 01:14:00;;;;;;;9.25;3.53;;;18.40;99.90;;;;;;5011107;28;20487;-68
2022/08/03 01:16:46;;;;;;;9.57;3.65;;;18.40;99.90;;;;;;4984029;28;20062;-67
2022/08/03 01:19:31;;;;;;;7.45;3.47;;;18.40;99.90;;;;;;4993520;28;20050;-70
2022/08/03 01:22:15;;;;;;;11.65;3.92;;;18.40;99.90;;;;;;4993340;28;20046;-68
2022/08/03 01:25:15;;;;;;;8.68;3.38;;;18.40;99.90;;;;;;5010783;28;20054;-68
2022/08/03 01:28:15;;;;;;;7.37;3.20;;;18.40;99.90;;;;;;5007113;28;20403;-70
2022/08/03 01:30:44;;;;;;;9.23;3.45;;;18.30;99.90;;;;;;4995459;28;20089;-67
2022/08/03 01:33:19;;;;;;;6.88;3.42;;;18.30;99.90;;;;;;5003847;28;20056;-68
2022/08/03 01:35:58;;;;;;;8.43;2.90;;;18.30;99.90;;;;;;5005558;28;20133;-67
2022/08/03 01:38:30;;;;;;;7.85;3.00;;;18.40;99.90;;;;;;5003403;28;20096;-68
2022/08/03 01:41:02;;;;;;;9.52;3.08;;;18.40;99.90;;;;;;5005714;28;20084;-67
2022/08/03 01:43:29;;;;;;;;;;;18.40;99.90;;;;;;5008562;28;20058;-68
2022/08/03 01:45:56;;;;;;;10.60;2.95;;;18.50;99.90;;;;;;5042343;28;20315;-67
2022/08/03 01:48:24;;;;;;;8.82;2.47;;;18.40;99.90;;;;;;5010488;28;20052;-68
2022/08/03 01:50:53;;;;;;;8.77;2.25;;;18.40;99.90;;;;;;5005962;28;20042;-68
2022/08/03 01:53:21;;;;;;;6.00;2.22;;;18.40;99.90;;;;;;5004837;28;20080;-71
2022/08/03 01:55:52;;;;;;;7.55;2.83;;;18.40;99.90;;;;;;5005315;28;20049;-68
2022/08/03 01:58:22;;;;;;;6.95;2.33;;;18.50;99.90;;;;;;5005299;28;20104;-69
2022/08/03 02:00:50;;;;;;;6.07;2.10;;;18.40;99.90;;;;;;4996605;28;20052;-68
2022/08/03 02:03:18;;;;;;;9.88;2.63;;;18.40;99.90;;;;;;4990016;28;20473;-68
2022/08/03 02:05:46;;;;;;;4.15;1.83;;;18.40;99.90;;;;;;5003849;28;20464;-68
2022/08/03 02:08:15;;;;;;;5.60;2.38;;;18.40;99.90;;;;;;4986289;28;20046;-68
2022/08/03 02:10:42;;;;;;;5.55;2.10;;;18.30;99.90;;;;;;5007646;28;20053;-68
2022/08/03 02:13:09;;;;;;;7.70;2.05;;;18.30;99.90;;;;;;5004615;28;20050;-67
2022/08/03 02:15:36;;;;;;;4.10;2.13;;;18.20;99.90;;;;;;4990046;28;20147;-67
2022/08/03 02:18:06;;;;;;;4.68;2.03;;;18.20;99.90;;;;;;4974021;28;20052;-69
2022/08/03 02:20:35;;;;;;;8.48;2.30;;;18.20;99.90;;;;;;4986357;28;20053;-69
2022/08/03 02:23:01;;;;;;;5.30;2.53;;;18.20;99.90;;;;;;5010282;28;20051;-67
2022/08/03 02:25:29;;;;;;;7.32;2.25;;;18.10;99.90;;;;;;4986907;28;20057;-67
2022/08/03 02:27:59;;;;;;;7.72;2.50;;;18.10;99.90;;;;;;5004089;28;20056;-67
2022/08/03 02:30:32;;;;;;;6.55;2.03;;;18.10;99.90;;;;;;4989785;28;20050;-70
2022/08/03 02:32:59;;;;;;;8.95;3.15;;;18.10;99.90;;;;;;4990891;28;20050;-68
2022/08/03 02:35:27;;;;;;;6.93;2.40;;;18.00;99.90;;;;;;4999939;28;20042;-68
2022/08/03 02:38:01;;;;;;;5.50;2.42;;;18.00;99.90;;;;;;4973431;28;20046;-68
2022/08/03 02:40:29;;;;;;;5.95;2.50;;;17.90;99.90;;;;;;5005678;28;20061;-68
2022/08/03 02:43:00;;;;;;;3.80;2.05;;;17.90;99.90;;;;;;5002539;28;20045;-70
2022/08/03 02:45:28;;;;;;;7.82;2.92;;;17.80;99.90;;;;;;5003247;28;20133;-68
2022/08/03 02:47:58;;;;;;;6.93;2.35;;;17.80;99.90;;;;;;4997391;28;20049;-68
2022/08/03 02:50:26;;;;;;;8.70;2.50;;;17.70;99.90;;;;;;5002335;28;20046;-70
2022/08/03 02:52:53;;;;;;;6.53;2.97;;;17.70;99.90;;;;;;5009164;28;20069;-67
2022/08/03 02:55:21;;;;;;;9.93;3.63;;;17.60;99.90;;;;;;4990627;28;20053;-70
2022/08/03 02:57:49;;;;;;;11.05;3.70;;;17.70;99.90;;;;;;4988768;28;20042;-72
2022/08/03 03:00:16;;;;;;;10.70;3.75;;;17.60;99.90;;;;;;4985040;28;20046;-67
2022/08/03 03:02:43;;;;;;;8.50;4.35;;;17.60;99.90;;;;;;5004925;28;20041;-67
2022/08/03 03:05:10;;;;;;;10.07;3.83;;;17.60;99.90;;;;;;5005600;28;20111;-68
2022/08/03 03:07:37;;;;;;;9.73;4.13;;;17.70;99.90;;;;;;5010210;28;20049;-67
2022/08/03 03:10:06;;;;;;;9.32;3.88;;;17.70;99.90;;;;;;5007995;28;20047;-68
2022/08/03 03:12:34;;;;;;;10.88;4.15;;;17.60;99.90;;;;;;5010755;28;20061;-67
2022/08/03 03:15:00;;;;;;;8.20;3.78;;;17.60;99.90;;;;;;5027943;28;20038;-67
2022/08/03 03:17:27;;;;;;;13.48;3.92;;;17.60;99.90;;;;;;5001582;28;20053;-71
2022/08/03 03:19:54;;;;;;;15.35;3.80;;;17.60;99.90;;;;;;5009083;28;20069;-67
2022/08/03 03:22:22;;;;;;;9.68;4.22;;;17.60;99.90;;;;;;5010444;28;20047;-68
2022/08/03 03:24:50;;;;;;;11.80;4.40;;;17.60;99.90;;;;;;4993881;28;20500;-67
2022/08/03 03:27:17;;;;;;;9.57;4.63;;;17.70;99.90;;;;;;4996934;28;20132;-68
2022/08/03 03:29:43;;;;;;;12.05;4.28;;;17.70;99.90;;;;;;4995058;28;20054;-68
2022/08/03 03:32:09;;;;;;;9.80;4.28;;;17.60;99.90;;;;;;4992568;28;20053;-67
2022/08/03 03:34:36;;;;;;;11.15;3.95;;;17.60;99.90;;;;;;4996570;28;20046;-67
2022/08/03 03:37:02;;;;;;;8.20;4.47;;;17.60;99.90;;;;;;5010781;28;20044;-70
2022/08/03 03:39:27;;;;;;;9.55;4.28;;;17.60;99.90;;;;;;4995464;28;20046;-68
2022/08/03 03:41:54;;;;;;;8.45;3.78;;;17.50;99.90;;;;;;5009682;28;20060;-68
2022/08/03 03:44:20;;;;;;;9.77;4.43;;;17.50;99.90;;;;;;5004556;28;20061;-70
2022/08/03 03:46:46;;;;;;;13.98;4.30;;;17.50;99.90;;;;;;4987949;28;20050;-70
2022/08/03 03:49:12;;;;;;;10.45;4.22;;;17.50;99.90;;;;;;5004890;28;20038;-70
2022/08/03 03:51:38;;;;;;;10.07;4.13;;;17.50;99.90;;;;;;4994088;28;20507;-68
2022/08/03 03:54:07;;;;;;;12.60;4.32;;;17.40;99.90;;;;;;4997970;28;20043;-67
2022/08/03 03:56:33;;;;;;;11.10;4.05;;;17.40;99.90;;;;;;5007742;28;20167;-68
2022/08/03 03:58:59;;;;;;;11.77;4.15;;;17.40;99.90;;;;;;4990293;28;20519;-68
2022/08/03 04:01:25;;;;;;;6.93;3.53;;;17.40;99.90;;;;;;4999317;28;20146;-69
2022/08/03 04:03:50;;;;;;;10.63;4.30;;;17.40;99.90;;;;;;4998117;28;20483;-71
2022/08/03 04:11:52;;;;;;;8.82;3.78;;;17.40;99.90;;;;;;4998449;28;20457;-68
2022/08/03 04:14:23;;;;;;;12.40;4.40;;;17.40;99.90;;;;;;4981004;28;20091;-68
2022/08/03 04:16:53;;;;;;;11.73;3.65;;;17.40;99.90;;;;;;4992036;28;20113;-69
2022/08/03 04:19:27;;;;;;;12.20;4.77;;;17.40;99.90;;;;;;4999169;28;20077;-71
2022/08/03 04:21:58;;;;;;;12.13;4.57;;;17.40;99.90;;;;;;5007551;28;20050;-67
2022/08/03 04:24:28;;;;;;;11.90;3.97;;;17.40;99.90;;;;;;4991736;28;20129;-67
2022/08/03 04:26:56;;;;;;;8.57;4.03;;;17.30;99.90;;;;;;5010182;28;20085;-67
2022/08/03 04:29:25;;;;;;;8.75;4.65;;;17.30;99.90;;;;;;5005996;28;20133;-68
2022/08/03 04:31:53;;;;;;;10.10;4.47;;;17.40;99.90;;;;;;4988638;28;20050;-67
2022/08/03 04:34:19;;;;;;;8.52;4.85;;;17.40;99.90;;;;;;4993092;28;20050;-69
2022/08/03 04:36:51;;;;;;;10.13;5.15;;;17.40;99.90;;;;;;4994400;28;20057;-67
2022/08/03 04:39:26;;;;;;;12.25;5.00;;;17.40;99.90;;;;;;5009584;28;20096;-67
2022/08/03 04:41:58;;;;;;;7.75;5.10;;;17.50;99.90;;;;;;4998905;28;20092;-67
2022/08/03 04:44:27;;;;;;;12.35;4.88;;;17.50;99.90;;;;;;5011272;28;20054;-67
2022/08/03 04:46:55;;;;;;;13.70;5.45;;;17.60;99.90;;;;;;5009111;28;20046;-68
2022/08/03 04:49:21;;;;;;;12.00;5.43;;;17.60;99.90;;;;;;5005994;28;20061;-70
2022/08/03 04:51:49;;;;;;;9.57;5.47;;;17.70;99.90;;;;;;5006685;28;20064;-67
2022/08/03 04:54:15;;;;;;;9.77;5.18;;;17.70;99.90;;;;;;4995051;28;20076;-71
2022/08/03 04:56:45;;;;;;;10.20;5.00;;;17.70;99.90;;;;;;4994979;28;20045;-67
2022/08/03 04:59:11;;;;;;;10.00;4.78;;;17.80;99.90;;;;;;4987778;28;20140;-67
2022/08/03 05:01:40;;;;;;;10.98;5.20;;;17.80;99.90;;;;;;4993623;28;20056;-68
2022/08/03 05:04:07;;;;;;;10.95;5.32;;;17.90;99.90;;;;;;4990319;28;20504;-67
2022/08/03 05:06:33;;;;;;;11.55;4.45;;;18.00;99.90;;;;;;4994873;28;20050;-67
2022/08/03 05:08:59;;;;;;;10.93;5.10;;;18.10;99.90;;;;;;5001118;28;20124;-69
2022/08/03 05:11:25;;;;;;;9.70;5.07;;;18.10;99.90;;;;;;5002807;28;20400;-71
2022/08/03 05:13:51;;;;;;;14.00;5.10;;;18.20;99.90;;;;;;4991118;28;20076;-67
2022/08/03 05:16:18;;;;;;;12.60;4.80;;;18.30;99.90;;;;;;4988937;28;20107;-69
2022/08/03 05:18:44;;;;;;;11.63;4.18;;;18.40;99.90;;;;;;5008636;28;20038;-67
2022/08/03 05:21:15;;;;;;;12.55;4.32;;;18.50;99.90;;;;;;5003887;28;20096;-67
2022/08/03 05:23:43;;;;;;;8.80;4.18;;;18.60;99.90;;;;;;4988960;28;20050;-69
2022/08/03 05:26:10;;;;;;;10.27;4.05;;;18.70;99.90;;;;;;5005367;28;20153;-70
2022/08/03 05:28:37;;;;;;;11.70;4.00;;;18.80;99.90;;;;;;4998444;28;20046;-70
2022/08/03 05:31:04;;;;;;;10.65;4.30;;;18.90;99.90;;;;;;4988891;28;20499;-70
2022/08/03 05:33:30;;;;;;;13.32;4.40;;;18.90;99.90;;;;;;5003728;28;20055;-68
2022/08/03 05:35:56;;;;;;;12.32;4.20;;;19.00;99.90;;;;;;4983861;28;20517;-67
2022/08/03 05:38:22;;;;;;;12.43;3.97;;;19.20;99.90;;;;;;4987837;28;20054;-67
2022/08/03 05:40:48;;;;;;;16.75;4.43;;;19.30;99.90;;;;;;5012645;28;20056;-69
2022/08/03 05:43:15;;;;;;;11.68;4.32;;;19.40;99.90;;;;;;4973571;28;20492;-72
2022/08/03 05:45:42;;;;;;;10.38;3.92;;;19.50;99.90;;;;;;5004215;28;20546;-68
2022/08/03 05:48:08;;;;;;;17.58;4.10;;;19.50;99.90;;;;;;4981574;28;20506;-69
2022/08/03 05:50:35;;;;;;;15.48;4.20;;;19.60;99.90;;;;;;4994796;28;20046;-68
2022/08/03 05:53:01;;;;;;;18.88;4.57;;;19.60;99.90;;;;;;5022322;28;20053;-67
2022/08/03 05:55:27;;;;;;;9.52;3.95;;;19.70;99.90;;;;;;4995347;28;20129;-69
2022/08/03 05:57:53;;;;;;;11.55;3.50;;;19.80;99.90;;;;;;5000983;28;20121;-68
2022/08/03 06:00:19;;;;;;;11.48;3.50;;;19.80;99.90;;;;;;5002931;28;20057;-70
2022/08/03 06:02:45;;;;;;;13.30;4.15;;;19.80;99.90;;;;;;4987476;28;20503;-68
2022/08/03 06:05:11;;;;;;;11.63;3.50;;;20.00;99.90;;;;;;4972459;28;20054;-70
2022/08/03 06:07:37;;;;;;;9.45;3.35;;;20.10;99.90;;;;;;5019120;28;20096;-68
2022/08/03 06:10:07;;;;;;;10.60;3.53;;;20.20;99.90;;;;;;5002780;28;20070;-68
2022/08/03 06:12:37;;;;;;;11.43;4.50;;;20.30;99.90;;;;;;5011668;28;20037;-68
2022/08/03 06:15:04;;;;;;;9.88;3.20;;;20.30;99.90;;;;;;5005143;28;20046;-68
2022/08/03 06:17:30;;;;;;;12.88;3.45;;;20.50;99.90;;;;;;5000261;28;20097;-69
2022/08/03 06:19:56;;;;;;;12.63;3.58;;;20.50;99.90;;;;;;5027876;28;20065;-70
2022/08/03 06:22:22;;;;;;;10.30;3.38;;;20.60;99.90;;;;;;4998007;28;20488;-71
2022/08/03 06:24:48;;;;;;;11.02;3.67;;;20.70;99.90;;;;;;4991252;28;20057;-69
2022/08/03 06:27:14;;;;;;;11.05;3.63;;;20.70;99.90;;;;;;5010168;28;20053;-68
2022/08/03 06:29:40;;;;;;;14.68;3.53;;;20.70;99.90;;;;;;5002770;28;20050;-69
2022/08/03 06:32:06;;;;;;;15.23;3.40;;;20.70;99.90;;;;;;5000743;28;20061;-71
2022/08/03 06:34:32;;;;;;;13.15;3.30;;;20.60;99.90;;;;;;5000381;28;20104;-73
2022/08/03 06:36:58;;;;;;;9.43;3.20;;;20.60;99.90;;;;;;5005072;28;20480;-70
2022/08/03 06:39:23;;;;;;;8.98;3.58;;;20.60;99.90;;;;;;5000838;28;20044;-70
2022/08/03 06:41:50;;;;;;;11.25;3.50;;;20.60;99.90;;;;;;5023742;28;20037;-74
2022/08/03 06:44:16;;;;;;;12.45;3.22;;;20.70;99.90;;;;;;5003304;28;20101;-71
2022/08/03 06:46:42;;;;;;;11.40;3.92;;;20.80;99.90;;;;;;5022225;28;20084;-71
2022/08/03 06:49:08;;;;;;;15.27;3.53;;;20.90;99.90;;;;;;5000044;28;20518;-70
2022/08/03 06:51:34;;;;;;;9.73;3.55;;;20.90;99.90;;;;;;5014274;28;20104;-71
2022/08/03 06:54:00;;;;;;;14.25;3.95;;;21.00;99.90;;;;;;5018422;28;20046;-70
2022/08/03 06:56:26;;;;;;;18.60;4.43;;;21.10;99.90;;;;;;4997974;28;20447;-70
2022/08/03 06:58:51;;;;;;;15.25;4.10;;;21.20;99.90;;;;;;4997287;28;20046;-71
2022/08/03 07:01:17;;;;;;;14.02;4.22;;;21.40;99.90;;;;;;5013048;28;20044;-70
2022/08/03 07:03:43;;;;;;;11.10;3.58;;;21.50;99.90;;;;;;5015408;28;20081;-70
2022/08/03 07:06:09;;;;;;;12.00;4.75;;;21.50;99.90;;;;;;5000893;28;20053;-72
2022/08/03 07:08:36;;;;;;;13.48;4.43;;;21.60;99.90;;;;;;5000500;28;20049;-72
2022/08/03 07:11:02;;;;;;;12.13;3.92;;;21.60;99.90;;;;;;4997271;28;20053;-70
2022/08/03 07:13:27;;;;;;;10.85;3.50;;;21.70;99.90;;;;;;5013736;28;20049;-70
2022/08/03 07:15:54;;;;;;;16.08;3.78;;;21.80;99.90;;;;;;5019207;28;20058;-72
2022/08/03 07:18:19;;;;;;;15.23;3.60;;;21.90;99.90;;;;;;4995726;28;20077;-75
2022/08/03 07:20:45;;;;;;;10.23;3.17;;;21.90;99.90;;;;;;4996093;28;20073;-70
2022/08/03 07:23:11;;;;;;;12.02;3.17;;;22.00;99.90;;;;;;5012731;28;20046;-71
2022/08/03 07:25:37;;;;;;;9.63;3.35;;;22.10;99.90;;;;;;5008180;28;20038;-71
2022/08/03 07:28:03;;;;;;;12.43;3.50;;;22.20;99.90;;;;;;5013075;28;20056;-74
2022/08/03 07:30:29;;;;;;;8.90;3.40;;;22.20;99.90;;;;;;5018221;28;20056;-71
2022/08/03 07:32:55;;;;;;;10.20;3.05;;;22.20;99.90;;;;;;5016490;28;20407;-71
2022/08/03 07:35:21;;;;;;;9.30;3.67;;;22.30;99.90;;;;;;5013369;28;20053;-71
2022/08/03 07:37:47;;;;;;;12.57;3.70;;;22.30;99.90;;;;;;4996222;28;20085;-72
2022/08/03 07:40:13;;;;;;;10.55;3.35;;;22.40;99.90;;;;;;5014140;28;20503;-71
2022/08/03 07:42:39;;;;;;;10.73;3.53;;;22.50;99.90;;;;;;5013219;28;20552;-72
2022/08/03 07:45:07;;;;;;;9.65;3.10;;;22.60;99.90;;;;;;5012660;28;20535;-72
2022/08/03 07:47:33;;;;;;;9.75;3.25;;;22.70;99.90;;;;;;5011524;28;20327;-73
2022/08/03 07:49:59;;;;;;;11.98;3.45;;;22.70;99.90;;;;;;4998147;28;20068;-74
2022/08/03 07:55:10;;;;;;;13.70;3.55;;;22.80;99.90;;;;;;5012614;28;20057;-71
2022/08/03 07:57:36;;;;;;;12.43;3.58;;;22.90;99.90;;;;;;5012418;28;20070;-71
2022/08/03 08:00:11;;;;;;;12.00;3.08;;;23.10;99.90;;;;;;5013318;28;20046;-73
2022/08/03 08:02:37;;;;;;;10.13;3.00;;;23.10;99.90;;;;;;4999212;28;20057;-73
2022/08/03 08:05:03;;;;;;;11.93;3.15;;;23.20;99.90;;;;;;5012764;28;20500;-71
2022/08/03 08:07:29;;;;;;;10.38;3.10;;;23.30;99.90;;;;;;5012374;28;20137;-70
2022/08/03 08:09:56;;;;;;;9.77;2.75;;;23.30;99.90;;;;;;5012653;28;20100;-71
2022/08/03 08:12:22;;;;;;;12.90;3.38;;;23.50;99.90;;;;;;5012395;28;20046;-73
2022/08/03 08:14:48;;;;;;;9.13;3.17;;;23.60;99.90;;;;;;5019236;28;20076;-72
2022/08/03 08:17:14;;;;;;;12.07;2.92;;;23.60;99.90;;;;;;5004798;28;20049;-71
2022/08/03 08:19:40;;;;;;;7.68;2.85;;;23.60;99.90;;;;;;5012195;28;20137;-72
2022/08/03 08:22:07;;;;;;;8.52;2.90;;;23.60;99.90;;;;;;5011971;28;20062;-71
2022/08/03 08:24:33;;;;;;;15.07;3.03;;;23.80;99.90;;;;;;4998276;28;20055;-72
2022/08/03 08:27:02;;;;;;;10.52;2.80;;;23.90;99.90;;;;;;5013168;28;20050;-72
2022/08/03 08:29:29;;;;;;;10.15;3.28;;;24.00;99.90;;;;;;5011508;28;20074;-71
2022/08/03 08:31:55;;;;;;;10.60;3.17;;;24.10;99.90;;;;;;5010374;28;20057;-73
2022/08/03 08:34:21;;;;;;;8.32;2.80;;;24.30;99.90;;;;;;5017597;28;20054;-71
2022/08/03 08:36:47;;;;;;;9.07;2.65;;;24.20;99.90;;;;;;5012193;28;20550;-72
2022/08/03 08:39:13;;;;;;;7.97;2.40;;;24.20;99.90;;;;;;5010921;28;20050;-73
2022/08/03 08:41:40;;;;;;;8.98;2.50;;;24.30;99.90;;;;;;5011254;28;20053;-73
2022/08/03 08:44:07;;;;;;;10.85;2.90;;;24.30;99.90;;;;;;5011268;28;20069;-72
2022/08/03 08:46:33;;;;;;;10.98;2.60;;;24.30;99.90;;;;;;5011791;28;20057;-71
2022/08/03 08:48:59;;;;;;;10.55;2.88;;;24.40;99.90;;;;;;5011524;28;20042;-72
2022/08/03 08:51:37;;;;;;;5.60;2.03;;;24.50;99.90;;;;;;4993100;28;20137;-71
2022/08/03 08:54:08;;;;;;;6.15;2.60;;;24.70;99.90;;;;;;5029164;28;20495;-70
2022/08/03 08:56:37;;;;;;;13.35;3.15;;;24.90;99.90;;;;;;5019567;28;20049;-73
2022/08/03 08:59:04;;;;;;;12.15;2.90;;;25.10;99.90;;;;;;5001509;28;20073;-71
2022/08/03 09:01:30;;;;;;;9.32;3.05;;;25.20;99.90;;;;;;5011669;28;20050;-69
2022/08/03 09:03:56;;;;;;;12.32;3.13;;;25.20;99.90;;;;;;5011273;28;20049;-75
2022/08/03 09:06:23;;;;;;;9.35;2.60;;;25.40;99.90;;;;;;5012138;28;20498;-71
2022/08/03 09:08:49;;;;;;;11.45;2.97;;;25.50;99.90;;;;;;5012919;28;20499;-71
2022/08/03 09:11:19;;;;;;;8.20;2.92;;;25.60;99.90;;;;;;5011800;28;20046;-73
2022/08/03 09:13:45;;;;;;;8.13;2.58;;;25.50;99.90;;;;;;4995290;28;20042;-71
2022/08/03 09:16:17;;;;;;;9.50;2.60;;;25.50;99.90;;;;;;5012168;28;20128;-71
2022/08/03 09:18:47;;;;;;;7.88;2.90;;;25.60;99.90;;;;;;5038796;28;20111;-72
2022/08/03 09:21:30;;;;;;;9.93;2.50;;;25.60;99.90;;;;;;5021008;28;20124;-73
2022/08/03 09:23:57;;;;;;;9.50;2.70;;;25.80;99.90;;;;;;4994861;28;20050;-74
2022/08/03 09:26:26;;;;;;;9.30;3.17;;;26.10;99.90;;;;;;5012476;28;20042;-72
2022/08/03 09:29:01;;;;;;;12.73;3.08;;;26.10;99.90;;;;;;5015189;28;20144;-71
2022/08/03 09:31:34;;;;;;;15.60;3.13;;;26.10;99.90;;;;;;5010962;28;20057;-71
2022/08/03 09:34:03;;;;;;;7.60;2.90;;;26.00;99.90;;;;;;4991648;28;20498;-72
2022/08/03 09:36:46;;;;;;;12.82;3.45;;;26.00;99.90;;;;;;4990769;28;20115;-74
2022/08/03 09:39:15;;;;;;;10.88;2.90;;;26.10;99.90;;;;;;5001937;28;20038;-70
2022/08/03 09:41:43;;;;;;;11.05;2.72;;;26.20;99.90;;;;;;5019644;28;20502;-69
2022/08/03 09:44:09;;;;;;;10.02;2.40;;;26.10;99.90;;;;;;5016406;28;20944;-70
2022/08/03 09:46:49;;;;;;;10.55;2.80;;;26.10;99.90;;;;;;5018492;28;20406;-70
2022/08/03 09:49:15;;;;;;;9.40;3.08;;;26.20;99.90;;;;;;5011876;28;20049;-70
2022/08/03 09:51:41;;;;;;;8.07;2.78;;;26.10;99.90;;;;;;5010756;28;20050;-69
2022/08/03 09:54:07;;;;;;;11.82;3.08;;;26.10;99.90;;;;;;4996797;28;20412;-70
2022/08/03 09:56:44;;;;;;;13.10;3.17;;;26.20;99.90;;;;;;4991981;28;20523;-72
2022/08/03 09:59:11;;;;;;;10.63;3.08;;;26.20;99.90;;;;;;5042581;28;20062;-70
2022/08/03 10:01:40;;;;;;;8.85;2.70;;;26.30;99.90;;;;;;5011158;28;20052;-72
2022/08/03 10:04:13;;;;;;;9.70;2.80;;;26.30;99.90;;;;;;5037419;28;20057;-71
2022/08/03 10:06:39;;;;;;;7.15;2.72;;;26.60;99.90;;;;;;5025530;28;20100;-71
2022/08/03 10:09:11;;;;;;;12.48;2.95;;;26.80;99.90;;;;;;4993847;28;20053;-71
2022/08/03 10:11:38;;;;;;;13.23;3.28;;;26.90;99.90;;;;;;4993524;28;20056;-70
2022/08/03 10:14:06;;;;;;;7.97;2.50;;;27.10;99.90;;;;;;5012082;28;20066;-70
2022/08/03 10:16:38;;;;;;;7.53;2.80;;;27.10;99.90;;;;;;5019885;28;20045;-70
2022/08/03 10:19:06;;;;;;;8.40;2.60;;;27.20;99.90;;;;;;4998689;28;20057;-69
2022/08/03 10:21:39;;;;;;;10.07;2.50;;;27.10;99.90;;;;;;5016117;28;20128;-70
2022/08/03 10:24:09;;;;;;;12.07;3.35;;;27.10;99.90;;;;;;4998826;28;20052;-71
2022/08/03 10:26:38;;;;;;;8.60;3.15;;;27.30;99.90;;;;;;5010421;28;20124;-72
2022/08/03 10:29:10;;;;;;;12.68;3.33;;;27.60;99.90;;;;;;4993871;28;20050;-70
2022/08/03 10:31:43;;;;;;;8.57;2.90;;;27.70;99.90;;;;;;5010142;28;20054;-71
2022/08/03 10:34:22;;;;;;;10.88;2.97;;;27.70;99.90;;;;;;5009779;28;20861;-72
2022/08/03 10:36:52;;;;;;;9.50;2.30;;;28.00;99.90;;;;;;5013532;28;20049;-71
2022/08/03 10:39:20;;;;;;;8.85;2.60;;;27.70;99.90;;;;;;5017962;28;20054;-71
2022/08/03 10:41:48;;;;;;;11.70;2.95;;;27.70;99.90;;;;;;5010780;28;20399;-72
2022/08/03 10:44:19;;;;;;;11.00;2.78;;;27.80;99.90;;;;;;5009899;28;20092;-73
2022/08/03 10:46:46;;;;;;;;;;;28.00;99.90;;;;;;4994912;28;20535;-75
2022/08/03 10:49:14;;;;;;;10.82;2.80;;;28.10;99.90;;;;;;5013768;28;19991;-72
2022/08/03 10:51:45;;;;;;;7.75;2.67;;;28.10;99.90;;;;;;5021023;28;20052;-71
2022/08/03 10:54:35;;;;;;;8.93;3.00;;;28.20;99.90;;;;;;4994514;28;20113;-72
2022/08/03 10:59:45;;;;;;;9.85;2.97;;;28.80;99.90;;;;;;5013380;28;20050;-71
2022/08/03 11:02:13;;;;;;;11.98;2.97;;;28.70;99.90;;;;;;5040906;28;20052;-71
2022/08/03 11:04:39;;;;;;;12.63;2.85;;;28.70;99.90;;;;;;4996938;28;20049;-70
2022/08/03 11:07:15;;;;;;;11.48;3.05;;;28.90;99.90;;;;;;5012253;28;20135;-71
2022/08/03 11:09:42;;;;;;;10.25;2.80;;;28.80;99.90;;;;;;5013699;28;20396;-72
2022/08/03 11:12:31;;;;;;;13.30;2.83;;;28.50;99.90;;;;;;5012764;28;20041;-71
2022/08/03 11:15:06;;;;;;;8.00;2.72;;;28.50;99.90;;;;;;4994579;28;20107;-71
2022/08/03 11:17:34;;;;;;;8.52;3.03;;;28.60;99.90;;;;;;4994829;28;20586;-70
2022/08/03 11:20:00;;;;;;;13.38;2.90;;;28.50;99.90;;;;;;5013103;28;20416;-70
2022/08/03 11:22:53;;;;;;;14.07;3.28;;;28.50;99.90;;;;;;4996519;28;20482;-72
2022/08/03 11:25:19;;;;;;;10.95;2.78;;;28.60;99.90;;;;;;4998084;28;20399;-71
2022/08/03 11:27:45;;;;;;;10.82;2.72;;;28.70;99.90;;;;;;5017305;28;20103;-72
2022/08/03 11:30:27;;;;;;;11.88;2.88;;;28.70;99.90;;;;;;5010100;28;20045;-73
2022/08/03 11:32:58;;;;;;;13.57;3.47;;;28.50;99.90;;;;;;4994979;28;20057;-72
2022/08/03 11:35:25;;;;;;;11.48;2.97;;;28.50;99.90;;;;;;5009638;28;20057;-70
2022/08/03 11:38:00;;;;;;;15.57;2.80;;;28.40;99.90;;;;;;4994324;28;20042;-70
2022/08/03 11:40:43;;;;;;;12.57;3.22;;;28.50;99.90;;;;;;5002517;28;20046;-71
2022/08/03 11:43:30;;;;;;;12.73;2.95;;;28.70;99.90;;;;;;5012543;28;20478;-73
2022/08/03 11:46:00;;;;;;;12.30;3.03;;;28.60;99.90;;;;;;4990576;28;20086;-70
2022/08/03 11:48:38;;;;;;;12.43;3.45;;;28.90;99.90;;;;;;5005963;28;20046;-73
2022/08/03 11:51:21;;;;;;;17.92;3.67;;;29.00;99.90;;;;;;4996791;28;20049;-71
2022/08/03 11:54:00;;;;;;;12.50;3.08;;;29.30;99.90;;;;;;5042460;28;20046;-70
2022/08/03 11:56:28;;;;;;;16.45;2.95;;;29.50;99.90;;;;;;5012945;28;20077;-70
2022/08/03 11:58:57;;;;;;;11.45;3.03;;;29.60;99.90;;;;;;5008456;28;20046;-71
2022/08/03 12:01:24;;;;;;;10.43;2.80;;;29.60;99.90;;;;;;5011732;28;20054;-76
2022/08/03 12:03:50;;;;;;;14.13;2.75;;;29.70;99.90;;;;;;4979579;28;20054;-74
2022/08/03 12:06:17;;;;;;;13.68;3.45;;;29.60;99.90;;;;;;4990631;28;20081;-72
2022/08/03 12:08:44;;;;;;;12.85;3.03;;;29.50;99.90;;;;;;5009298;28;20484;-75
2022/08/03 12:11:13;;;;;;;14.00;2.80;;;29.40;99.90;;;;;;5018888;28;20050;-72
2022/08/03 12:13:46;;;;;;;13.52;2.95;;;29.50;99.90;;;;;;5004859;28;20616;-70
2022/08/03 12:16:23;;;;;;;15.25;3.08;;;29.70;99.90;;;;;;4993576;28;20057;-71
2022/08/03 12:19:01;;;;;;;14.50;3.30;;;30.20;99.90;;;;;;5028149;28;20455;-75
2022/08/03 12:21:28;;;;;;;12.73;3.08;;;30.30;99.90;;;;;;4997687;28;20111;-71
2022/08/03 12:24:00;;;;;;;8.80;3.13;;;30.50;99.90;;;;;;5011667;28;20056;-71
2022/08/03 12:26:28;;;;;;;11.60;2.92;;;30.70;97.40;;;;;;5011581;28;20060;-71
2022/08/03 12:28:54;;;;;;;19.23;3.40;;;31.00;99.10;;;;;;5011922;28;20054;-71
2022/08/03 12:31:20;;;;;;;10.50;2.80;;;31.20;98.10;;;;;;5017953;28;20054;-73
2022/08/03 12:34:07;;;;;;;14.48;2.80;;;31.10;96.50;;;;;;4992910;28;20129;-75
2022/08/03 12:36:34;;;;;;;13.05;2.72;;;31.20;95.60;;;;;;5008240;28;20129;-72
2022/08/03 12:39:05;;;;;;;10.50;2.70;;;31.40;95.20;;;;;;5011832;28;20484;-72
2022/08/03 12:41:39;;;;;;;15.13;2.80;;;31.50;95.00;;;;;;5002598;28;20045;-72
2022/08/03 12:44:07;;;;;;;10.50;2.67;;;31.50;93.80;;;;;;5038530;28;20128;-71
2022/08/03 12:46:36;;;;;;;16.45;3.38;;;31.40;92.60;;;;;;5017822;28;20037;-71
2022/08/03 12:49:14;;;;;;;13.27;2.92;;;31.60;91.30;;;;;;5023003;28;20135;-72
2022/08/03 12:51:43;;;;;;;11.45;2.75;;;31.60;87.40;;;;;;5009973;28;20143;-72
2022/08/03 12:54:19;;;;;;;13.02;2.72;;;31.90;87.80;;;;;;5011829;28;20038;-72
2022/08/03 12:57:03;;;;;;;12.25;2.63;;;31.90;86.80;;;;;;5008534;28;20042;-70
2022/08/03 12:59:31;;;;;;;11.40;2.67;;;32.00;81.00;;;;;;5028027;28;20108;-70
2022/08/03 13:01:58;;;;;;;12.45;2.72;;;32.10;80.60;;;;;;5009857;28;20049;-70